sensor_id;sensor_type;location;lat;lon;timestamp;temperature;humidity
22645;DHT22;11489;50.834;6.752;2023-08-06T00:00:21;15.60;90.70
22645;DHT22;11489;50.834;6.752;2023-08-06T00:02:47;15.60;90.70
22645;DHT22;11489;50.834;6.752;2023-08-06T00:05:13;15.60;90.70
22645;DHT22;11489;50.834;6.752;2023-08-06T00:07:38;15.50;90.70
22645;DHT22;11489;50.834;6.752;2023-08-06T00:10:05;15.60;90.80
22645;DHT22;11489;50.834;6.752;2023-08-06T00:12:30;15.50;90.70
22645;DHT22;11489;50.834;6.752;2023-08-06T00:14:56;15.50;90.70
22645;DHT22;11489;50.834;6.752;2023-08-06T00:17:22;15.50;90.70
22645;DHT22;11489;50.834;6.752;2023-08-06T00:19:47;15.50;90.70
22645;DHT22;11489;50.834;6.752;2023-08-06T00:22:13;15.40;90.70
22645;DHT22;11489;50.834;6.752;2023-08-06T00:24:39;15.40;90.70
22645;DHT22;11489;50.834;6.752;2023-08-06T00:27:04;15.40;90.80
22645;DHT22;11489;50.834;6.752;2023-08-06T00:29:30;15.30;90.80
22645;DHT22;11489;50.834;6.752;2023-08-06T00:31:58;15.30;90.80
22645;DHT22;11489;50.834;6.752;2023-08-06T00:34:24;15.30;90.80
22645;DHT22;11489;50.834;6.752;2023-08-06T00:36:49;15.20;90.90
22645;DHT22;11489;50.834;6.752;2023-08-06T00:39:15;15.20;90.90
22645;DHT22;11489;50.834;6.752;2023-08-06T00:41:41;15.20;91.00
22645;DHT22;11489;50.834;6.752;2023-08-06T00:44:06;15.20;91.10
22645;DHT22;11489;50.834;6.752;2023-08-06T00:46:33;15.20;91.20
22645;DHT22;11489;50.834;6.752;2023-08-06T00:48:59;15.20;91.30
22645;DHT22;11489;50.834;6.752;2023-08-06T00:51:25;15.20;91.40
22645;DHT22;11489;50.834;6.752;2023-08-06T00:53:52;15.20;91.40
22645;DHT22;11489;50.834;6.752;2023-08-06T00:56:19;15.20;91.50
22645;DHT22;11489;50.834;6.752;2023-08-06T00:58:45;15.20;91.50
22645;DHT22;11489;50.834;6.752;2023-08-06T01:01:11;15.30;91.60
22645;DHT22;11489;50.834;6.752;2023-08-06T01:03:36;15.30;91.60
22645;DHT22;11489;50.834;6.752;2023-08-06T01:06:02;15.40;91.60
22645;DHT22;11489;50.834;6.752;2023-08-06T01:11:38;15.50;91.30
22645;DHT22;11489;50.834;6.752;2023-08-06T01:14:14;15.50;91.30
22645;DHT22;11489;50.834;6.752;2023-08-06T01:16:42;15.50;91.40
22645;DHT22;11489;50.834;6.752;2023-08-06T01:19:17;15.50;91.40
22645;DHT22;11489;50.834;6.752;2023-08-06T01:21:43;15.50;91.30
22645;DHT22;11489;50.834;6.752;2023-08-06T01:24:09;15.50;91.40
22645;DHT22;11489;50.834;6.752;2023-08-06T01:29:13;15.50;91.40
22645;DHT22;11489;50.834;6.752;2023-08-06T01:31:43;15.60;91.40
22645;DHT22;11489;50.834;6.752;2023-08-06T01:34:16;15.60;91.50
22645;DHT22;11489;50.834;6.752;2023-08-06T01:36:42;15.60;91.50
22645;DHT22;11489;50.834;6.752;2023-08-06T01:39:08;15.60;91.50
22645;DHT22;11489;50.834;6.752;2023-08-06T01:41:34;15.60;91.50
22645;DHT22;11489;50.834;6.752;2023-08-06T01:43:59;15.70;91.50
22645;DHT22;11489;50.834;6.752;2023-08-06T01:46:25;15.70;91.40
22645;DHT22;11489;50.834;6.752;2023-08-06T01:48:51;15.70;91.40
22645;DHT22;11489;50.834;6.752;2023-08-06T01:51:16;15.70;91.30
22645;DHT22;11489;50.834;6.752;2023-08-06T01:53:42;15.70;91.30
22645;DHT22;11489;50.834;6.752;2023-08-06T01:56:08;15.70;91.30
22645;DHT22;11489;50.834;6.752;2023-08-06T01:58:33;15.70;91.30
22645;DHT22;11489;50.834;6.752;2023-08-06T02:00:59;15.70;91.30
22645;DHT22;11489;50.834;6.752;2023-08-06T02:03:26;15.70;91.30
22645;DHT22;11489;50.834;6.752;2023-08-06T02:05:51;15.70;91.30
22645;DHT22;11489;50.834;6.752;2023-08-06T02:08:17;15.70;91.30
22645;DHT22;11489;50.834;6.752;2023-08-06T02:10:43;15.70;91.30
22645;DHT22;11489;50.834;6.752;2023-08-06T02:13:08;15.70;91.30
22645;DHT22;11489;50.834;6.752;2023-08-06T02:15:34;15.70;91.30
22645;DHT22;11489;50.834;6.752;2023-08-06T02:17:59;15.70;91.30
22645;DHT22;11489;50.834;6.752;2023-08-06T02:20:25;15.60;91.30
22645;DHT22;11489;50.834;6.752;2023-08-06T02:22:51;15.70;91.30
22645;DHT22;11489;50.834;6.752;2023-08-06T02:25:16;15.60;91.70
22645;DHT22;11489;50.834;6.752;2023-08-06T02:27:42;15.60;91.40
22645;DHT22;11489;50.834;6.752;2023-08-06T02:30:08;15.60;91.40
22645;DHT22;11489;50.834;6.752;2023-08-06T02:32:33;15.60;91.40
22645;DHT22;11489;50.834;6.752;2023-08-06T02:35:01;15.60;91.50
22645;DHT22;11489;50.834;6.752;2023-08-06T02:37:27;15.60;91.50
22645;DHT22;11489;50.834;6.752;2023-08-06T02:39:53;15.60;91.40
22645;DHT22;11489;50.834;6.752;2023-08-06T02:42:18;15.60;91.40
22645;DHT22;11489;50.834;6.752;2023-08-06T02:44:44;15.60;91.40
22645;DHT22;11489;50.834;6.752;2023-08-06T02:47:10;15.60;91.40
22645;DHT22;11489;50.834;6.752;2023-08-06T02:49:35;15.60;91.40
22645;DHT22;11489;50.834;6.752;2023-08-06T02:52:01;15.50;91.40
22645;DHT22;11489;50.834;6.752;2023-08-06T02:54:26;15.50;91.40
22645;DHT22;11489;50.834;6.752;2023-08-06T02:56:52;15.50;91.40
22645;DHT22;11489;50.834;6.752;2023-08-06T02:59:18;15.40;91.40
22645;DHT22;11489;50.834;6.752;2023-08-06T03:01:43;15.40;91.40
22645;DHT22;11489;50.834;6.752;2023-08-06T03:04:10;15.40;91.50
22645;DHT22;11489;50.834;6.752;2023-08-06T03:06:35;15.40;91.60
22645;DHT22;11489;50.834;6.752;2023-08-06T03:09:01;15.30;91.60
22645;DHT22;11489;50.834;6.752;2023-08-06T03:11:27;15.30;91.70
22645;DHT22;11489;50.834;6.752;2023-08-06T03:13:52;15.30;91.80
22645;DHT22;11489;50.834;6.752;2023-08-06T03:16:18;15.30;91.80
22645;DHT22;11489;50.834;6.752;2023-08-06T03:18:43;15.20;91.80
22645;DHT22;11489;50.834;6.752;2023-08-06T03:21:09;15.20;91.80
22645;DHT22;11489;50.834;6.752;2023-08-06T03:23:35;15.20;91.90
22645;DHT22;11489;50.834;6.752;2023-08-06T03:26:04;15.20;91.90
22645;DHT22;11489;50.834;6.752;2023-08-06T03:28:30;15.10;92.00
22645;DHT22;11489;50.834;6.752;2023-08-06T03:31:01;15.10;92.00
22645;DHT22;11489;50.834;6.752;2023-08-06T03:33:27;15.00;92.10
22645;DHT22;11489;50.834;6.752;2023-08-06T03:35:53;15.00;92.10
22645;DHT22;11489;50.834;6.752;2023-08-06T03:38:19;15.00;92.10
22645;DHT22;11489;50.834;6.752;2023-08-06T03:40:46;15.00;92.10
22645;DHT22;11489;50.834;6.752;2023-08-06T03:43:12;14.90;92.10
22645;DHT22;11489;50.834;6.752;2023-08-06T03:45:38;14.90;92.10
22645;DHT22;11489;50.834;6.752;2023-08-06T03:48:03;14.90;92.20
22645;DHT22;11489;50.834;6.752;2023-08-06T03:50:29;14.80;92.20
22645;DHT22;11489;50.834;6.752;2023-08-06T03:52:55;14.80;92.30
22645;DHT22;11489;50.834;6.752;2023-08-06T03:55:21;14.80;92.30
22645;DHT22;11489;50.834;6.752;2023-08-06T03:57:47;14.80;92.40
22645;DHT22;11489;50.834;6.752;2023-08-06T04:00:12;14.70;92.50
22645;DHT22;11489;50.834;6.752;2023-08-06T04:02:38;14.70;92.50
22645;DHT22;11489;50.834;6.752;2023-08-06T04:05:04;14.70;92.60
22645;DHT22;11489;50.834;6.752;2023-08-06T04:07:30;14.70;92.60
22645;DHT22;11489;50.834;6.752;2023-08-06T04:10:00;14.70;92.60
22645;DHT22;11489;50.834;6.752;2023-08-06T04:12:27;14.60;92.60
22645;DHT22;11489;50.834;6.752;2023-08-06T04:14:54;14.60;92.60
22645;DHT22;11489;50.834;6.752;2023-08-06T04:17:20;14.60;92.70
22645;DHT22;11489;50.834;6.752;2023-08-06T04:19:51;14.60;92.70
22645;DHT22;11489;50.834;6.752;2023-08-06T04:22:17;14.60;92.80
22645;DHT22;11489;50.834;6.752;2023-08-06T04:24:43;14.50;92.80
22645;DHT22;11489;50.834;6.752;2023-08-06T04:27:09;14.50;92.90
22645;DHT22;11489;50.834;6.752;2023-08-06T04:29:36;14.50;93.00
22645;DHT22;11489;50.834;6.752;2023-08-06T04:32:03;14.50;93.10
22645;DHT22;11489;50.834;6.752;2023-08-06T04:34:28;14.50;93.10
22645;DHT22;11489;50.834;6.752;2023-08-06T04:36:54;14.50;93.20
22645;DHT22;11489;50.834;6.752;2023-08-06T04:39:20;14.50;93.30
22645;DHT22;11489;50.834;6.752;2023-08-06T04:41:45;14.50;93.40
22645;DHT22;11489;50.834;6.752;2023-08-06T04:44:11;14.60;93.50
22645;DHT22;11489;50.834;6.752;2023-08-06T04:46:36;14.60;93.50
22645;DHT22;11489;50.834;6.752;2023-08-06T04:49:02;14.60;93.50
22645;DHT22;11489;50.834;6.752;2023-08-06T04:51:28;14.70;93.60
22645;DHT22;11489;50.834;6.752;2023-08-06T04:53:53;14.70;93.70
22645;DHT22;11489;50.834;6.752;2023-08-06T04:56:19;14.70;93.80
22645;DHT22;11489;50.834;6.752;2023-08-06T04:58:45;14.80;93.80
22645;DHT22;11489;50.834;6.752;2023-08-06T05:01:10;14.80;93.90
22645;DHT22;11489;50.834;6.752;2023-08-06T05:03:36;14.90;93.90
22645;DHT22;11489;50.834;6.752;2023-08-06T05:06:01;14.90;93.90
22645;DHT22;11489;50.834;6.752;2023-08-06T05:08:27;14.90;94.00
22645;DHT22;11489;50.834;6.752;2023-08-06T05:10:53;15.00;94.00
22645;DHT22;11489;50.834;6.752;2023-08-06T05:13:18;15.00;94.00
22645;DHT22;11489;50.834;6.752;2023-08-06T05:15:44;15.00;94.00
22645;DHT22;11489;50.834;6.752;2023-08-06T05:18:12;15.10;94.00
22645;DHT22;11489;50.834;6.752;2023-08-06T05:20:39;15.10;94.00
22645;DHT22;11489;50.834;6.752;2023-08-06T05:23:05;15.10;93.90
22645;DHT22;11489;50.834;6.752;2023-08-06T05:25:30;15.10;94.00
22645;DHT22;11489;50.834;6.752;2023-08-06T05:27:56;15.10;94.00
22645;DHT22;11489;50.834;6.752;2023-08-06T05:30:21;15.10;93.90
22645;DHT22;11489;50.834;6.752;2023-08-06T05:32:47;15.10;93.90
22645;DHT22;11489;50.834;6.752;2023-08-06T05:35:13;15.10;94.00
22645;DHT22;11489;50.834;6.752;2023-08-06T05:37:38;15.10;94.10
22645;DHT22;11489;50.834;6.752;2023-08-06T05:40:04;15.10;94.20
22645;DHT22;11489;50.834;6.752;2023-08-06T05:42:30;15.10;94.20
22645;DHT22;11489;50.834;6.752;2023-08-06T05:44:58;15.10;94.20
22645;DHT22;11489;50.834;6.752;2023-08-06T05:47:24;15.10;94.30
22645;DHT22;11489;50.834;6.752;2023-08-06T05:49:50;15.10;94.30
22645;DHT22;11489;50.834;6.752;2023-08-06T05:52:15;15.00;94.40
22645;DHT22;11489;50.834;6.752;2023-08-06T05:54:41;15.00;94.30
22645;DHT22;11489;50.834;6.752;2023-08-06T05:57:07;15.00;94.30
22645;DHT22;11489;50.834;6.752;2023-08-06T05:59:32;15.00;94.70
22645;DHT22;11489;50.834;6.752;2023-08-06T06:01:58;15.00;94.40
22645;DHT22;11489;50.834;6.752;2023-08-06T06:04:25;15.00;94.50
22645;DHT22;11489;50.834;6.752;2023-08-06T06:06:59;15.00;94.50
22645;DHT22;11489;50.834;6.752;2023-08-06T06:09:25;15.00;94.50
22645;DHT22;11489;50.834;6.752;2023-08-06T06:11:51;15.00;94.50
22645;DHT22;11489;50.834;6.752;2023-08-06T06:14:19;15.00;94.50
22645;DHT22;11489;50.834;6.752;2023-08-06T06:16:45;15.00;94.50
22645;DHT22;11489;50.834;6.752;2023-08-06T06:19:12;15.00;94.60
22645;DHT22;11489;50.834;6.752;2023-08-06T06:21:40;15.00;94.70
22645;DHT22;11489;50.834;6.752;2023-08-06T06:24:06;15.00;94.70
22645;DHT22;11489;50.834;6.752;2023-08-06T06:26:36;15.00;94.80
22645;DHT22;11489;50.834;6.752;2023-08-06T06:29:07;15.00;94.90
22645;DHT22;11489;50.834;6.752;2023-08-06T06:31:33;15.00;95.00
22645;DHT22;11489;50.834;6.752;2023-08-06T06:33:59;15.00;95.10
22645;DHT22;11489;50.834;6.752;2023-08-06T06:36:24;15.00;95.20
22645;DHT22;11489;50.834;6.752;2023-08-06T06:38:50;15.10;95.30
22645;DHT22;11489;50.834;6.752;2023-08-06T06:41:16;15.10;95.30
22645;DHT22;11489;50.834;6.752;2023-08-06T06:43:41;15.20;95.30
22645;DHT22;11489;50.834;6.752;2023-08-06T06:46:07;15.20;95.30
22645;DHT22;11489;50.834;6.752;2023-08-06T06:48:35;15.20;95.30
22645;DHT22;11489;50.834;6.752;2023-08-06T06:51:01;15.30;95.50
22645;DHT22;11489;50.834;6.752;2023-08-06T06:53:26;15.30;95.60
22645;DHT22;11489;50.834;6.752;2023-08-06T06:56:09;15.40;95.70
22645;DHT22;11489;50.834;6.752;2023-08-06T06:58:35;15.50;95.60
22645;DHT22;11489;50.834;6.752;2023-08-06T07:01:01;15.60;95.70
22645;DHT22;11489;50.834;6.752;2023-08-06T07:03:26;15.70;95.70
22645;DHT22;11489;50.834;6.752;2023-08-06T07:05:57;15.70;95.60
22645;DHT22;11489;50.834;6.752;2023-08-06T07:08:26;15.80;95.40
22645;DHT22;11489;50.834;6.752;2023-08-06T07:11:00;15.80;95.40
22645;DHT22;11489;50.834;6.752;2023-08-06T07:13:27;15.90;95.30
22645;DHT22;11489;50.834;6.752;2023-08-06T07:15:54;15.90;95.30
22645;DHT22;11489;50.834;6.752;2023-08-06T07:18:20;16.00;95.20
22645;DHT22;11489;50.834;6.752;2023-08-06T07:20:50;16.00;95.20
22645;DHT22;11489;50.834;6.752;2023-08-06T07:23:15;16.00;95.00
22645;DHT22;11489;50.834;6.752;2023-08-06T07:25:41;16.00;95.00
22645;DHT22;11489;50.834;6.752;2023-08-06T07:28:07;16.10;95.10
22645;DHT22;11489;50.834;6.752;2023-08-06T07:30:32;16.10;94.90
22645;DHT22;11489;50.834;6.752;2023-08-06T07:33:01;16.10;94.80
22645;DHT22;11489;50.834;6.752;2023-08-06T07:35:29;16.10;94.80
22645;DHT22;11489;50.834;6.752;2023-08-06T07:37:55;16.10;94.90
22645;DHT22;11489;50.834;6.752;2023-08-06T07:40:21;16.10;95.00
22645;DHT22;11489;50.834;6.752;2023-08-06T07:42:47;16.20;95.20
22645;DHT22;11489;50.834;6.752;2023-08-06T07:45:12;16.20;95.20
22645;DHT22;11489;50.834;6.752;2023-08-06T07:47:38;16.30;95.20
22645;DHT22;11489;50.834;6.752;2023-08-06T07:50:04;16.30;95.10
22645;DHT22;11489;50.834;6.752;2023-08-06T07:52:29;16.30;95.10
22645;DHT22;11489;50.834;6.752;2023-08-06T07:54:55;16.40;95.00
22645;DHT22;11489;50.834;6.752;2023-08-06T07:57:21;16.40;94.90
22645;DHT22;11489;50.834;6.752;2023-08-06T07:59:46;16.50;95.00
22645;DHT22;11489;50.834;6.752;2023-08-06T08:02:12;16.40;95.20
22645;DHT22;11489;50.834;6.752;2023-08-06T08:04:38;16.60;95.50
22645;DHT22;11489;50.834;6.752;2023-08-06T08:07:03;16.60;95.60
22645;DHT22;11489;50.834;6.752;2023-08-06T08:09:29;16.70;95.60
22645;DHT22;11489;50.834;6.752;2023-08-06T08:11:55;16.80;95.40
22645;DHT22;11489;50.834;6.752;2023-08-06T08:14:21;16.80;95.20
22645;DHT22;11489;50.834;6.752;2023-08-06T08:16:46;16.90;95.20
22645;DHT22;11489;50.834;6.752;2023-08-06T08:19:12;16.90;95.10
22645;DHT22;11489;50.834;6.752;2023-08-06T08:21:37;16.90;95.00
22645;DHT22;11489;50.834;6.752;2023-08-06T08:24:04;17.00;95.00
22645;DHT22;11489;50.834;6.752;2023-08-06T08:26:29;16.90;94.70
22645;DHT22;11489;50.834;6.752;2023-08-06T08:28:56;16.90;94.70
22645;DHT22;11489;50.834;6.752;2023-08-06T08:31:22;16.90;94.70
22645;DHT22;11489;50.834;6.752;2023-08-06T08:33:48;16.90;94.70
22645;DHT22;11489;50.834;6.752;2023-08-06T08:36:13;16.90;94.80
22645;DHT22;11489;50.834;6.752;2023-08-06T08:38:39;16.90;94.80
22645;DHT22;11489;50.834;6.752;2023-08-06T08:41:05;16.90;94.70
22645;DHT22;11489;50.834;6.752;2023-08-06T08:43:31;16.90;94.80
22645;DHT22;11489;50.834;6.752;2023-08-06T08:45:59;16.90;94.80
22645;DHT22;11489;50.834;6.752;2023-08-06T08:48:26;16.90;94.90
22645;DHT22;11489;50.834;6.752;2023-08-06T08:50:53;16.90;95.20
22645;DHT22;11489;50.834;6.752;2023-08-06T08:53:19;16.90;94.90
22645;DHT22;11489;50.834;6.752;2023-08-06T08:55:49;16.90;95.00
22645;DHT22;11489;50.834;6.752;2023-08-06T08:58:15;16.90;95.00
22645;DHT22;11489;50.834;6.752;2023-08-06T09:00:46;16.90;94.50
22645;DHT22;11489;50.834;6.752;2023-08-06T09:03:26;16.90;94.30
22645;DHT22;11489;50.834;6.752;2023-08-06T09:05:53;16.80;93.90
22645;DHT22;11489;50.834;6.752;2023-08-06T09:08:25;16.70;93.90
22645;DHT22;11489;50.834;6.752;2023-08-06T09:10:53;16.60;93.90
22645;DHT22;11489;50.834;6.752;2023-08-06T09:13:20;16.50;94.00
22645;DHT22;11489;50.834;6.752;2023-08-06T09:15:46;16.40;94.20
22645;DHT22;11489;50.834;6.752;2023-08-06T09:18:12;16.30;94.30
22645;DHT22;11489;50.834;6.752;2023-08-06T09:20:38;16.20;94.50
22645;DHT22;11489;50.834;6.752;2023-08-06T09:23:11;16.20;94.50
22645;DHT22;11489;50.834;6.752;2023-08-06T09:26:14;16.10;94.60
22645;DHT22;11489;50.834;6.752;2023-08-06T09:29:13;16.10;94.50
22645;DHT22;11489;50.834;6.752;2023-08-06T09:31:54;16.10;94.90
22645;DHT22;11489;50.834;6.752;2023-08-06T09:34:26;16.00;94.60
22645;DHT22;11489;50.834;6.752;2023-08-06T09:40:27;15.80;93.90
22645;DHT22;11489;50.834;6.752;2023-08-06T09:42:56;15.60;93.70
22645;DHT22;11489;50.834;6.752;2023-08-06T09:45:25;15.50;93.70
22645;DHT22;11489;50.834;6.752;2023-08-06T09:48:13;15.30;93.80
22645;DHT22;11489;50.834;6.752;2023-08-06T09:50:42;15.10;94.00
22645;DHT22;11489;50.834;6.752;2023-08-06T09:53:10;15.00;94.20
22645;DHT22;11489;50.834;6.752;2023-08-06T10:00:05;14.70;94.30
22645;DHT22;11489;50.834;6.752;2023-08-06T10:03:05;14.60;94.50
22645;DHT22;11489;50.834;6.752;2023-08-06T10:05:32;14.50;94.70
22645;DHT22;11489;50.834;6.752;2023-08-06T10:08:20;14.40;94.80
22645;DHT22;11489;50.834;6.752;2023-08-06T10:10:46;14.30;94.80
22645;DHT22;11489;50.834;6.752;2023-08-06T10:16:07;14.20;94.90
22645;DHT22;11489;50.834;6.752;2023-08-06T10:18:42;14.10;95.00
22645;DHT22;11489;50.834;6.752;2023-08-06T10:21:09;14.00;95.00
22645;DHT22;11489;50.834;6.752;2023-08-06T10:23:40;14.00;95.20
22645;DHT22;11489;50.834;6.752;2023-08-06T10:26:16;14.00;95.30
22645;DHT22;11489;50.834;6.752;2023-08-06T10:28:42;13.90;95.30
22645;DHT22;11489;50.834;6.752;2023-08-06T10:31:14;13.90;95.40
22645;DHT22;11489;50.834;6.752;2023-08-06T10:33:48;13.90;95.40
22645;DHT22;11489;50.834;6.752;2023-08-06T10:36:17;13.80;95.50
22645;DHT22;11489;50.834;6.752;2023-08-06T10:38:57;13.80;95.60
22645;DHT22;11489;50.834;6.752;2023-08-06T10:41:50;13.80;95.70
22645;DHT22;11489;50.834;6.752;2023-08-06T10:44:24;13.80;95.60
22645;DHT22;11489;50.834;6.752;2023-08-06T10:46:50;13.90;95.70
22645;DHT22;11489;50.834;6.752;2023-08-06T10:49:17;13.80;95.70
22645;DHT22;11489;50.834;6.752;2023-08-06T10:51:44;13.80;95.60
22645;DHT22;11489;50.834;6.752;2023-08-06T10:54:16;13.80;95.50
22645;DHT22;11489;50.834;6.752;2023-08-06T10:56:42;13.80;95.60
22645;DHT22;11489;50.834;6.752;2023-08-06T10:59:14;13.80;95.70
22645;DHT22;11489;50.834;6.752;2023-08-06T11:01:54;13.80;95.80
22645;DHT22;11489;50.834;6.752;2023-08-06T11:04:55;13.80;95.80
22645;DHT22;11489;50.834;6.752;2023-08-06T11:07:43;13.80;95.80
22645;DHT22;11489;50.834;6.752;2023-08-06T11:10:32;13.80;95.90
22645;DHT22;11489;50.834;6.752;2023-08-06T11:13:03;13.80;95.90
22645;DHT22;11489;50.834;6.752;2023-08-06T11:15:38;13.80;96.00
22645;DHT22;11489;50.834;6.752;2023-08-06T11:18:45;13.80;96.10
22645;DHT22;11489;50.834;6.752;2023-08-06T11:22:05;13.90;96.00
22645;DHT22;11489;50.834;6.752;2023-08-06T11:25:46;14.00;96.00
22645;DHT22;11489;50.834;6.752;2023-08-06T11:29:08;14.00;96.20
22645;DHT22;11489;50.834;6.752;2023-08-06T11:31:46;14.00;96.20
22645;DHT22;11489;50.834;6.752;2023-08-06T11:34:23;14.10;96.20
22645;DHT22;11489;50.834;6.752;2023-08-06T11:37:08;14.10;96.10
22645;DHT22;11489;50.834;6.752;2023-08-06T11:40:26;14.10;96.20
22645;DHT22;11489;50.834;6.752;2023-08-06T11:43:21;14.10;96.30
22645;DHT22;11489;50.834;6.752;2023-08-06T11:49:52;14.20;96.20
22645;DHT22;11489;50.834;6.752;2023-08-06T11:52:38;14.30;96.40
22645;DHT22;11489;50.834;6.752;2023-08-06T11:56:30;14.30;96.40
22645;DHT22;11489;50.834;6.752;2023-08-06T11:59:59;14.40;96.20
22645;DHT22;11489;50.834;6.752;2023-08-06T12:03:25;14.40;96.10
22645;DHT22;11489;50.834;6.752;2023-08-06T12:11:57;14.50;96.30
22645;DHT22;11489;50.834;6.752;2023-08-06T12:14:24;14.50;96.30
22645;DHT22;11489;50.834;6.752;2023-08-06T12:16:49;14.60;96.40
22645;DHT22;11489;50.834;6.752;2023-08-06T12:19:15;14.60;96.40
22645;DHT22;11489;50.834;6.752;2023-08-06T12:21:40;14.60;96.40
22645;DHT22;11489;50.834;6.752;2023-08-06T12:24:06;14.70;96.50
22645;DHT22;11489;50.834;6.752;2023-08-06T12:26:33;14.70;96.60
22645;DHT22;11489;50.834;6.752;2023-08-06T12:28:58;14.80;96.60
22645;DHT22;11489;50.834;6.752;2023-08-06T12:31:24;14.90;96.60
22645;DHT22;11489;50.834;6.752;2023-08-06T12:33:49;14.90;96.50
22645;DHT22;11489;50.834;6.752;2023-08-06T12:36:15;15.00;96.40
22645;DHT22;11489;50.834;6.752;2023-08-06T12:38:41;15.10;96.30
22645;DHT22;11489;50.834;6.752;2023-08-06T12:41:06;15.10;96.20
22645;DHT22;11489;50.834;6.752;2023-08-06T12:43:32;15.20;96.20
22645;DHT22;11489;50.834;6.752;2023-08-06T12:45:58;15.20;96.30
22645;DHT22;11489;50.834;6.752;2023-08-06T12:48:23;15.20;95.80
22645;DHT22;11489;50.834;6.752;2023-08-06T12:50:49;15.20;96.00
22645;DHT22;11489;50.834;6.752;2023-08-06T12:53:15;15.30;95.60
22645;DHT22;11489;50.834;6.752;2023-08-06T12:55:41;15.30;95.60
22645;DHT22;11489;50.834;6.752;2023-08-06T12:58:07;15.30;95.50
22645;DHT22;11489;50.834;6.752;2023-08-06T13:00:33;15.30;95.50
22645;DHT22;11489;50.834;6.752;2023-08-06T13:02:59;15.30;95.50
22645;DHT22;11489;50.834;6.752;2023-08-06T13:05:25;15.30;95.50
22645;DHT22;11489;50.834;6.752;2023-08-06T13:07:50;15.30;95.40
22645;DHT22;11489;50.834;6.752;2023-08-06T13:10:16;15.30;95.50
22645;DHT22;11489;50.834;6.752;2023-08-06T13:12:43;15.30;95.50
22645;DHT22;11489;50.834;6.752;2023-08-06T13:15:09;15.30;95.50
22645;DHT22;11489;50.834;6.752;2023-08-06T13:17:35;15.30;95.50
22645;DHT22;11489;50.834;6.752;2023-08-06T13:20:00;15.30;95.40
22645;DHT22;11489;50.834;6.752;2023-08-06T13:22:26;15.30;95.50
22645;DHT22;11489;50.834;6.752;2023-08-06T13:24:52;15.30;95.50
22645;DHT22;11489;50.834;6.752;2023-08-06T13:27:17;15.40;95.50
22645;DHT22;11489;50.834;6.752;2023-08-06T13:29:43;15.30;95.40
22645;DHT22;11489;50.834;6.752;2023-08-06T13:32:09;15.40;95.50
22645;DHT22;11489;50.834;6.752;2023-08-06T13:34:34;15.40;95.70
22645;DHT22;11489;50.834;6.752;2023-08-06T13:37:00;15.40;95.80
22645;DHT22;11489;50.834;6.752;2023-08-06T13:39:25;15.50;95.90
22645;DHT22;11489;50.834;6.752;2023-08-06T13:41:51;15.50;96.00
22645;DHT22;11489;50.834;6.752;2023-08-06T13:44:17;15.60;96.00
22645;DHT22;11489;50.834;6.752;2023-08-06T13:46:42;15.70;95.80
22645;DHT22;11489;50.834;6.752;2023-08-06T13:49:08;15.70;95.60
22645;DHT22;11489;50.834;6.752;2023-08-06T13:51:34;15.80;95.70
22645;DHT22;11489;50.834;6.752;2023-08-06T13:54:01;15.80;95.80
22645;DHT22;11489;50.834;6.752;2023-08-06T13:56:26;15.90;95.60
22645;DHT22;11489;50.834;6.752;2023-08-06T13:58:52;16.00;95.70
22645;DHT22;11489;50.834;6.752;2023-08-06T14:01:18;16.00;95.70
22645;DHT22;11489;50.834;6.752;2023-08-06T14:03:44;16.10;95.20
22645;DHT22;11489;50.834;6.752;2023-08-06T14:06:10;16.10;95.40
22645;DHT22;11489;50.834;6.752;2023-08-06T14:08:36;16.10;95.40
22645;DHT22;11489;50.834;6.752;2023-08-06T14:11:01;16.20;95.20
22645;DHT22;11489;50.834;6.752;2023-08-06T14:13:27;16.20;94.90
22645;DHT22;11489;50.834;6.752;2023-08-06T14:15:53;16.20;95.00
22645;DHT22;11489;50.834;6.752;2023-08-06T14:18:18;16.20;94.80
22645;DHT22;11489;50.834;6.752;2023-08-06T14:20:44;16.20;94.80
22645;DHT22;11489;50.834;6.752;2023-08-06T14:23:10;16.20;94.90
22645;DHT22;11489;50.834;6.752;2023-08-06T14:25:37;16.20;94.90
22645;DHT22;11489;50.834;6.752;2023-08-06T14:28:03;16.20;94.90
22645;DHT22;11489;50.834;6.752;2023-08-06T14:30:29;16.20;95.00
22645;DHT22;11489;50.834;6.752;2023-08-06T14:32:55;16.20;95.00
22645;DHT22;11489;50.834;6.752;2023-08-06T14:35:20;16.20;95.00
22645;DHT22;11489;50.834;6.752;2023-08-06T14:37:46;16.20;94.90
22645;DHT22;11489;50.834;6.752;2023-08-06T14:40:12;16.30;95.00
22645;DHT22;11489;50.834;6.752;2023-08-06T14:42:37;16.30;95.00
22645;DHT22;11489;50.834;6.752;2023-08-06T14:45:03;16.30;94.90
22645;DHT22;11489;50.834;6.752;2023-08-06T14:47:29;16.30;95.00
22645;DHT22;11489;50.834;6.752;2023-08-06T14:49:55;16.30;95.10
22645;DHT22;11489;50.834;6.752;2023-08-06T14:52:20;16.30;94.70
22645;DHT22;11489;50.834;6.752;2023-08-06T14:54:46;16.40;94.70
22645;DHT22;11489;50.834;6.752;2023-08-06T14:57:12;16.40;94.90
22645;DHT22;11489;50.834;6.752;2023-08-06T14:59:39;16.40;95.10
22645;DHT22;11489;50.834;6.752;2023-08-06T15:02:06;16.40;95.20
22645;DHT22;11489;50.834;6.752;2023-08-06T15:04:31;16.50;95.10
22645;DHT22;11489;50.834;6.752;2023-08-06T15:06:57;16.50;95.10
22645;DHT22;11489;50.834;6.752;2023-08-06T15:09:23;16.50;95.10
22645;DHT22;11489;50.834;6.752;2023-08-06T15:11:49;16.60;95.00
22645;DHT22;11489;50.834;6.752;2023-08-06T15:14:15;16.60;94.90
22645;DHT22;11489;50.834;6.752;2023-08-06T15:16:41;16.60;94.90
22645;DHT22;11489;50.834;6.752;2023-08-06T15:19:06;16.60;94.70
22645;DHT22;11489;50.834;6.752;2023-08-06T15:21:32;16.60;94.60
22645;DHT22;11489;50.834;6.752;2023-08-06T15:23:58;16.60;94.60
22645;DHT22;11489;50.834;6.752;2023-08-06T15:26:24;16.60;94.70
22645;DHT22;11489;50.834;6.752;2023-08-06T15:28:49;16.50;94.60
22645;DHT22;11489;50.834;6.752;2023-08-06T15:31:15;16.50;94.70
22645;DHT22;11489;50.834;6.752;2023-08-06T15:33:44;16.50;94.60
22645;DHT22;11489;50.834;6.752;2023-08-06T15:36:10;16.50;94.80
22645;DHT22;11489;50.834;6.752;2023-08-06T15:38:35;16.50;94.70
22645;DHT22;11489;50.834;6.752;2023-08-06T15:41:01;16.50;94.80
22645;DHT22;11489;50.834;6.752;2023-08-06T15:43:27;16.50;94.90
22645;DHT22;11489;50.834;6.752;2023-08-06T15:45:52;16.50;94.90
22645;DHT22;11489;50.834;6.752;2023-08-06T15:48:18;16.50;95.00
22645;DHT22;11489;50.834;6.752;2023-08-06T15:50:44;16.50;94.90
22645;DHT22;11489;50.834;6.752;2023-08-06T15:53:09;16.50;95.00
22645;DHT22;11489;50.834;6.752;2023-08-06T15:55:37;16.50;94.80
22645;DHT22;11489;50.834;6.752;2023-08-06T15:58:03;16.50;94.80
22645;DHT22;11489;50.834;6.752;2023-08-06T16:00:29;16.50;94.70
22645;DHT22;11489;50.834;6.752;2023-08-06T16:02:55;16.50;94.60
22645;DHT22;11489;50.834;6.752;2023-08-06T16:05:21;16.40;94.70